sensor_id;sensor_type;location;lat;lon;timestamp;P1;durP1;ratioP1;P2;durP2;ratioP2
25915;SDS011;13719;48.188;11.618;2024-02-26T00:02:25;3.50;;;2.40;;
25915;SDS011;13719;48.188;11.618;2024-02-26T00:04:54;5.20;;;3.00;;
25915;SDS011;13719;48.188;11.618;2024-02-26T00:07:22;3.03;;;2.35;;
25915;SDS011;13719;48.188;11.618;2024-02-26T00:09:51;4.15;;;2.30;;
25915;SDS011;13719;48.188;11.618;2024-02-26T00:12:19;3.90;;;2.45;;
25915;SDS011;13719;48.188;11.618;2024-02-26T00:14:48;2.95;;;2.53;;
25915;SDS011;13719;48.188;11.618;2024-02-26T00:17:16;2.92;;;2.40;;
25915;SDS011;13719;48.188;11.618;2024-02-26T00:19:46;3.13;;;2.22;;
25915;SDS011;13719;48.188;11.618;2024-02-26T00:22:14;7.13;;;2.58;;
25915;SDS011;13719;48.188;11.618;2024-02-26T00:24:43;3.17;;;2.25;;
25915;SDS011;13719;48.188;11.618;2024-02-26T00:27:11;4.25;;;2.22;;
25915;SDS011;13719;48.188;11.618;2024-02-26T00:29:39;2.95;;;2.45;;
25915;SDS011;13719;48.188;11.618;2024-02-26T00:32:08;3.50;;;2.20;;
25915;SDS011;13719;48.188;11.618;2024-02-26T00:34:36;2.15;;;1.77;;
25915;SDS011;13719;48.188;11.618;2024-02-26T00:37:06;3.78;;;2.58;;
25915;SDS011;13719;48.188;11.618;2024-02-26T00:39:34;3.42;;;2.50;;
25915;SDS011;13719;48.188;11.618;2024-02-26T00:42:03;2.13;;;1.90;;
25915;SDS011;13719;48.188;11.618;2024-02-26T00:44:31;3.88;;;2.40;;
25915;SDS011;13719;48.188;11.618;2024-02-26T00:47:00;3.50;;;2.58;;
25915;SDS011;13719;48.188;11.618;2024-02-26T00:49:28;3.85;;;2.45;;
25915;SDS011;13719;48.188;11.618;2024-02-26T00:51:57;3.22;;;2.28;;
25915;SDS011;13719;48.188;11.618;2024-02-26T00:54:26;3.78;;;2.45;;
25915;SDS011;13719;48.188;11.618;2024-02-26T00:56:55;3.28;;;2.60;;
25915;SDS011;13719;48.188;11.618;2024-02-26T00:59:23;3.58;;;2.42;;
25915;SDS011;13719;48.188;11.618;2024-02-26T01:01:52;3.83;;;2.55;;
25915;SDS011;13719;48.188;11.618;2024-02-26T01:04:20;3.58;;;2.17;;
25915;SDS011;13719;48.188;11.618;2024-02-26T01:06:48;2.38;;;2.03;;
25915;SDS011;13719;48.188;11.618;2024-02-26T01:09:17;5.20;;;2.28;;
25915;SDS011;13719;48.188;11.618;2024-02-26T01:11:47;4.28;;;2.08;;
25915;SDS011;13719;48.188;11.618;2024-02-26T01:14:15;5.10;;;2.30;;
25915;SDS011;13719;48.188;11.618;2024-02-26T01:16:44;3.17;;;2.30;;
25915;SDS011;13719;48.188;11.618;2024-02-26T01:19:12;4.57;;;2.58;;
25915;SDS011;13719;48.188;11.618;2024-02-26T01:21:41;5.35;;;2.60;;
25915;SDS011;13719;48.188;11.618;2024-02-26T01:24:10;4.53;;;3.08;;
25915;SDS011;13719;48.188;11.618;2024-02-26T01:26:38;4.07;;;2.67;;
25915;SDS011;13719;48.188;11.618;2024-02-26T01:29:08;3.17;;;2.25;;
25915;SDS011;13719;48.188;11.618;2024-02-26T01:31:36;3.28;;;2.20;;
25915;SDS011;13719;48.188;11.618;2024-02-26T01:34:05;2.83;;;2.20;;
25915;SDS011;13719;48.188;11.618;2024-02-26T01:36:33;3.17;;;2.30;;
25915;SDS011;13719;48.188;11.618;2024-02-26T01:39:02;4.75;;;2.47;;
25915;SDS011;13719;48.188;11.618;2024-02-26T01:41:30;3.92;;;2.15;;
25915;SDS011;13719;48.188;11.618;2024-02-26T01:43:59;2.65;;;2.10;;
25915;SDS011;13719;48.188;11.618;2024-02-26T01:46:29;2.95;;;2.13;;
25915;SDS011;13719;48.188;11.618;2024-02-26T01:48:58;4.45;;;2.33;;
25915;SDS011;13719;48.188;11.618;2024-02-26T01:51:26;3.58;;;2.42;;
25915;SDS011;13719;48.188;11.618;2024-02-26T01:53:55;4.43;;;2.42;;
25915;SDS011;13719;48.188;11.618;2024-02-26T01:56:23;3.15;;;1.90;;
25915;SDS011;13719;48.188;11.618;2024-02-26T01:58:56;3.50;;;2.25;;
25915;SDS011;13719;48.188;11.618;2024-02-26T02:01:25;2.95;;;2.08;;
25915;SDS011;13719;48.188;11.618;2024-02-26T02:03:57;3.65;;;2.53;;
25915;SDS011;13719;48.188;11.618;2024-02-26T02:06:26;2.30;;;1.92;;
25915;SDS011;13719;48.188;11.618;2024-02-26T02:08:56;2.22;;;1.90;;
25915;SDS011;13719;48.188;11.618;2024-02-26T02:11:27;3.65;;;2.38;;
25915;SDS011;13719;48.188;11.618;2024-02-26T02:13:56;2.30;;;2.10;;
25915;SDS011;13719;48.188;11.618;2024-02-26T02:16:24;2.95;;;2.15;;
25915;SDS011;13719;48.188;11.618;2024-02-26T02:18:52;2.92;;;2.22;;
25915;SDS011;13719;48.188;11.618;2024-02-26T02:21:22;2.80;;;2.10;;
25915;SDS011;13719;48.188;11.618;2024-02-26T02:23:51;4.68;;;2.25;;
25915;SDS011;13719;48.188;11.618;2024-02-26T02:26:19;5.70;;;2.83;;
25915;SDS011;13719;48.188;11.618;2024-02-26T02:28:48;2.25;;;1.98;;
25915;SDS011;13719;48.188;11.618;2024-02-26T02:31:16;2.65;;;2.03;;
25915;SDS011;13719;48.188;11.618;2024-02-26T02:33:45;4.38;;;2.13;;
25915;SDS011;13719;48.188;11.618;2024-02-26T02:36:14;3.17;;;2.10;;
25915;SDS011;13719;48.188;11.618;2024-02-26T02:38:49;2.45;;;2.00;;
25915;SDS011;13719;48.188;11.618;2024-02-26T02:41:18;5.22;;;2.30;;
25915;SDS011;13719;48.188;11.618;2024-02-26T02:43:46;2.63;;;2.03;;
25915;SDS011;13719;48.188;11.618;2024-02-26T02:46:15;3.15;;;2.40;;
25915;SDS011;13719;48.188;11.618;2024-02-26T02:48:43;4.43;;;2.15;;
25915;SDS011;13719;48.188;11.618;2024-02-26T02:51:12;3.67;;;1.98;;
25915;SDS011;13719;48.188;11.618;2024-02-26T02:53:40;2.63;;;1.98;;
25915;SDS011;13719;48.188;11.618;2024-02-26T02:56:10;2.63;;;2.08;;
25915;SDS011;13719;48.188;11.618;2024-02-26T02:58:38;3.72;;;2.10;;
25915;SDS011;13719;48.188;11.618;2024-02-26T03:01:07;4.03;;;2.17;;
25915;SDS011;13719;48.188;11.618;2024-02-26T03:03:35;4.88;;;2.28;;
25915;SDS011;13719;48.188;11.618;2024-02-26T03:06:04;4.78;;;2.00;;
25915;SDS011;13719;48.188;11.618;2024-02-26T03:08:32;4.43;;;2.33;;
25915;SDS011;13719;48.188;11.618;2024-02-26T03:11:04;3.00;;;2.00;;
25915;SDS011;13719;48.188;11.618;2024-02-26T03:13:34;2.95;;;2.10;;
25915;SDS011;13719;48.188;11.618;2024-02-26T03:16:04;2.25;;;2.00;;
25915;SDS011;13719;48.188;11.618;2024-02-26T03:18:33;2.03;;;1.75;;
25915;SDS011;13719;48.188;11.618;2024-02-26T03:21:02;3.10;;;2.20;;
25915;SDS011;13719;48.188;11.618;2024-02-26T03:23:30;2.38;;;2.10;;
25915;SDS011;13719;48.188;11.618;2024-02-26T03:26:02;3.42;;;2.30;;
25915;SDS011;13719;48.188;11.618;2024-02-26T03:28:31;4.10;;;2.33;;
25915;SDS011;13719;48.188;11.618;2024-02-26T03:31:01;3.25;;;2.28;;
25915;SDS011;13719;48.188;11.618;2024-02-26T03:33:29;2.65;;;1.98;;
25915;SDS011;13719;48.188;11.618;2024-02-26T03:35:58;3.78;;;2.58;;
25915;SDS011;13719;48.188;11.618;2024-02-26T03:38:26;4.03;;;2.65;;
25915;SDS011;13719;48.188;11.618;2024-02-26T03:40:55;3.30;;;2.15;;
25915;SDS011;13719;48.188;11.618;2024-02-26T03:43:23;5.53;;;1.70;;
25915;SDS011;13719;48.188;11.618;2024-02-26T03:45:51;3.28;;;2.50;;
25915;SDS011;13719;48.188;11.618;2024-02-26T03:48:21;2.38;;;1.70;;
25915;SDS011;13719;48.188;11.618;2024-02-26T03:50:50;2.55;;;1.60;;
25915;SDS011;13719;48.188;11.618;2024-02-26T03:53:18;1.92;;;1.73;;
25915;SDS011;13719;48.188;11.618;2024-02-26T03:55:46;2.40;;;1.90;;
25915;SDS011;13719;48.188;11.618;2024-02-26T03:58:15;2.83;;;2.05;;
25915;SDS011;13719;48.188;11.618;2024-02-26T04:00:44;2.90;;;1.88;;
25915;SDS011;13719;48.188;11.618;2024-02-26T04:03:14;4.18;;;2.03;;
25915;SDS011;13719;48.188;11.618;2024-02-26T04:05:44;2.28;;;2.03;;
25915;SDS011;13719;48.188;11.618;2024-02-26T04:08:12;1.98;;;1.42;;
25915;SDS011;13719;48.188;11.618;2024-02-26T04:10:41;4.22;;;1.90;;
25915;SDS011;13719;48.188;11.618;2024-02-26T04:13:09;3.45;;;1.85;;
25915;SDS011;13719;48.188;11.618;2024-02-26T04:15:37;2.58;;;2.05;;
25915;SDS011;13719;48.188;11.618;2024-02-26T04:18:06;3.72;;;1.77;;
25915;SDS011;13719;48.188;11.618;2024-02-26T04:20:35;2.63;;;1.95;;
25915;SDS011;13719;48.188;11.618;2024-02-26T04:23:04;3.35;;;2.33;;
25915;SDS011;13719;48.188;11.618;2024-02-26T04:25:33;2.25;;;2.00;;
25915;SDS011;13719;48.188;11.618;2024-02-26T04:28:01;2.00;;;1.77;;
25915;SDS011;13719;48.188;11.618;2024-02-26T04:30:29;4.28;;;1.70;;
25915;SDS011;13719;48.188;11.618;2024-02-26T04:32:58;4.40;;;2.00;;
25915;SDS011;13719;48.188;11.618;2024-02-26T04:35:26;4.28;;;2.00;;
25915;SDS011;13719;48.188;11.618;2024-02-26T04:37:55;3.83;;;1.70;;
25915;SDS011;13719;48.188;11.618;2024-02-26T04:40:25;2.95;;;1.92;;
25915;SDS011;13719;48.188;11.618;2024-02-26T04:42:53;2.70;;;1.98;;
25915;SDS011;13719;48.188;11.618;2024-02-26T04:45:22;2.70;;;1.92;;
25915;SDS011;13719;48.188;11.618;2024-02-26T04:47:51;2.53;;;1.73;;
25915;SDS011;13719;48.188;11.618;2024-02-26T04:50:19;2.72;;;1.92;;
25915;SDS011;13719;48.188;11.618;2024-02-26T04:52:47;1.70;;;1.58;;
25915;SDS011;13719;48.188;11.618;2024-02-26T04:55:16;1.90;;;1.67;;
25915;SDS011;13719;48.188;11.618;2024-02-26T04:57:45;3.08;;;1.80;;
25915;SDS011;13719;48.188;11.618;2024-02-26T05:00:14;2.13;;;1.83;;
25915;SDS011;13719;48.188;11.618;2024-02-26T05:02:43;2.15;;;1.80;;
25915;SDS011;13719;48.188;11.618;2024-02-26T05:05:12;3.50;;;1.83;;
25915;SDS011;13719;48.188;11.618;2024-02-26T05:07:40;3.35;;;1.83;;
25915;SDS011;13719;48.188;11.618;2024-02-26T05:10:09;2.40;;;2.00;;
25915;SDS011;13719;48.188;11.618;2024-02-26T05:12:38;2.33;;;1.70;;
25915;SDS011;13719;48.188;11.618;2024-02-26T05:15:10;1.50;;;1.35;;
25915;SDS011;13719;48.188;11.618;2024-02-26T05:17:44;3.05;;;1.75;;
25915;SDS011;13719;48.188;11.618;2024-02-26T05:20:13;2.78;;;1.58;;
25915;SDS011;13719;48.188;11.618;2024-02-26T05:22:41;3.30;;;1.70;;
25915;SDS011;13719;48.188;11.618;2024-02-26T05:25:10;3.08;;;1.65;;
25915;SDS011;13719;48.188;11.618;2024-02-26T05:27:38;1.98;;;1.50;;
25915;SDS011;13719;48.188;11.618;2024-02-26T05:30:07;1.65;;;1.45;;
25915;SDS011;13719;48.188;11.618;2024-02-26T05:32:37;1.45;;;1.35;;
25915;SDS011;13719;48.188;11.618;2024-02-26T05:35:06;2.03;;;1.52;;
25915;SDS011;13719;48.188;11.618;2024-02-26T05:37:35;1.15;;;1.08;;
25915;SDS011;13719;48.188;11.618;2024-02-26T05:40:04;1.70;;;1.20;;
25915;SDS011;13719;48.188;11.618;2024-02-26T05:42:32;2.08;;;1.50;;
25915;SDS011;13719;48.188;11.618;2024-02-26T05:45:00;2.20;;;1.50;;
25915;SDS011;13719;48.188;11.618;2024-02-26T05:47:32;2.20;;;1.50;;
25915;SDS011;13719;48.188;11.618;2024-02-26T05:50:02;2.63;;;1.60;;
25915;SDS011;13719;48.188;11.618;2024-02-26T05:52:31;1.98;;;1.35;;
25915;SDS011;13719;48.188;11.618;2024-02-26T05:54:59;1.85;;;1.48;;
25915;SDS011;13719;48.188;11.618;2024-02-26T05:57:28;1.95;;;1.77;;
25915;SDS011;13719;48.188;11.618;2024-02-26T05:59:56;1.63;;;1.50;;
25915;SDS011;13719;48.188;11.618;2024-02-26T06:02:27;2.35;;;1.70;;
25915;SDS011;13719;48.188;11.618;2024-02-26T06:04:55;2.92;;;1.90;;
25915;SDS011;13719;48.188;11.618;2024-02-26T06:07:25;1.73;;;1.40;;
25915;SDS011;13719;48.188;11.618;2024-02-26T06:09:53;2.10;;;1.60;;
25915;SDS011;13719;48.188;11.618;2024-02-26T06:12:22;4.53;;;1.70;;
25915;SDS011;13719;48.188;11.618;2024-02-26T06:14:50;1.55;;;1.45;;
25915;SDS011;13719;48.188;11.618;2024-02-26T06:17:19;3.35;;;1.48;;
25915;SDS011;13719;48.188;11.618;2024-02-26T06:19:47;3.28;;;1.38;;
25915;SDS011;13719;48.188;11.618;2024-02-26T06:22:16;1.63;;;1.52;;
25915;SDS011;13719;48.188;11.618;2024-02-26T06:24:45;2.70;;;1.58;;
25915;SDS011;13719;48.188;11.618;2024-02-26T06:27:14;1.40;;;1.30;;
25915;SDS011;13719;48.188;11.618;2024-02-26T06:29:42;3.20;;;1.45;;
25915;SDS011;13719;48.188;11.618;2024-02-26T06:32:11;2.30;;;1.73;;
25915;SDS011;13719;48.188;11.618;2024-02-26T06:34:39;1.52;;;1.42;;
25915;SDS011;13719;48.188;11.618;2024-02-26T06:37:08;1.77;;;1.48;;
25915;SDS011;13719;48.188;11.618;2024-02-26T06:39:37;2.80;;;1.50;;
25915;SDS011;13719;48.188;11.618;2024-02-26T06:42:06;1.42;;;1.30;;
25915;SDS011;13719;48.188;11.618;2024-02-26T06:44:35;4.30;;;1.55;;
25915;SDS011;13719;48.188;11.618;2024-02-26T06:47:03;2.20;;;1.70;;
25915;SDS011;13719;48.188;11.618;2024-02-26T06:49:32;2.47;;;2.10;;
25915;SDS011;13719;48.188;11.618;2024-02-26T06:52:00;2.40;;;1.77;;
25915;SDS011;13719;48.188;11.618;2024-02-26T06:54:29;2.50;;;1.95;;
25915;SDS011;13719;48.188;11.618;2024-02-26T06:56:57;3.70;;;2.13;;
25915;SDS011;13719;48.188;11.618;2024-02-26T06:59:27;2.15;;;1.73;;
25915;SDS011;13719;48.188;11.618;2024-02-26T07:01:55;5.20;;;1.90;;
25915;SDS011;13719;48.188;11.618;2024-02-26T07:04:24;2.83;;;1.98;;
25915;SDS011;13719;48.188;11.618;2024-02-26T07:06:52;5.05;;;1.92;;
25915;SDS011;13719;48.188;11.618;2024-02-26T07:09:21;2.42;;;1.88;;
25915;SDS011;13719;48.188;11.618;2024-02-26T07:11:49;1.95;;;1.30;;
25915;SDS011;13719;48.188;11.618;2024-02-26T07:14:18;2.75;;;1.90;;
25915;SDS011;13719;48.188;11.618;2024-02-26T07:16:48;4.68;;;1.60;;
25915;SDS011;13719;48.188;11.618;2024-02-26T07:19:16;5.28;;;1.98;;
25915;SDS011;13719;48.188;11.618;2024-02-26T07:21:45;2.63;;;1.90;;
25915;SDS011;13719;48.188;11.618;2024-02-26T07:24:13;6.43;;;1.70;;
25915;SDS011;13719;48.188;11.618;2024-02-26T07:26:42;4.68;;;1.92;;
25915;SDS011;13719;48.188;11.618;2024-02-26T07:29:10;2.70;;;1.73;;
25915;SDS011;13719;48.188;11.618;2024-02-26T07:31:38;2.03;;;1.67;;
25915;SDS011;13719;48.188;11.618;2024-02-26T07:34:08;9.00;;;2.72;;
25915;SDS011;13719;48.188;11.618;2024-02-26T07:36:37;2.95;;;2.10;;
25915;SDS011;13719;48.188;11.618;2024-02-26T07:39:05;3.58;;;2.30;;
25915;SDS011;13719;48.188;11.618;2024-02-26T07:41:34;4.45;;;2.63;;
25915;SDS011;13719;48.188;11.618;2024-02-26T07:44:04;4.78;;;2.08;;
25915;SDS011;13719;48.188;11.618;2024-02-26T07:46:33;3.70;;;1.70;;
25915;SDS011;13719;48.188;11.618;2024-02-26T07:49:01;3.15;;;2.00;;
25915;SDS011;13719;48.188;11.618;2024-02-26T07:51:31;3.28;;;2.03;;
25915;SDS011;13719;48.188;11.618;2024-02-26T07:54:01;2.35;;;1.60;;
25915;SDS011;13719;48.188;11.618;2024-02-26T07:56:30;3.63;;;2.08;;
25915;SDS011;13719;48.188;11.618;2024-02-26T07:58:58;2.13;;;1.50;;
25915;SDS011;13719;48.188;11.618;2024-02-26T08:01:26;2.53;;;1.77;;
25915;SDS011;13719;48.188;11.618;2024-02-26T08:03:55;3.78;;;2.08;;
25915;SDS011;13719;48.188;11.618;2024-02-26T08:06:24;2.47;;;1.70;;
25915;SDS011;13719;48.188;11.618;2024-02-26T08:08:55;2.13;;;1.63;;
25915;SDS011;13719;48.188;11.618;2024-02-26T08:11:23;2.55;;;1.90;;
25915;SDS011;13719;48.188;11.618;2024-02-26T08:13:51;2.35;;;1.75;;
25915;SDS011;13719;48.188;11.618;2024-02-26T08:16:20;3.22;;;1.92;;
25915;SDS011;13719;48.188;11.618;2024-02-26T08:18:48;3.20;;;2.00;;
25915;SDS011;13719;48.188;11.618;2024-02-26T08:21:17;2.88;;;2.00;;
25915;SDS011;13719;48.188;11.618;2024-02-26T08:23:45;5.07;;;1.90;;
25915;SDS011;13719;48.188;11.618;2024-02-26T08:26:15;2.75;;;1.60;;
25915;SDS011;13719;48.188;11.618;2024-02-26T08:28:43;4.22;;;1.70;;
25915;SDS011;13719;48.188;11.618;2024-02-26T08:31:13;2.22;;;1.70;;
25915;SDS011;13719;48.188;11.618;2024-02-26T08:33:42;3.88;;;1.70;;
25915;SDS011;13719;48.188;11.618;2024-02-26T08:36:11;1.33;;;1.23;;
25915;SDS011;13719;48.188;11.618;2024-02-26T08:38:40;3.65;;;1.50;;
25915;SDS011;13719;48.188;11.618;2024-02-26T08:41:08;2.33;;;1.70;;
25915;SDS011;13719;48.188;11.618;2024-02-26T08:43:38;1.40;;;1.30;;
25915;SDS011;13719;48.188;11.618;2024-02-26T08:46:08;1.90;;;1.38;;
25915;SDS011;13719;48.188;11.618;2024-02-26T08:48:38;1.60;;;1.50;;
25915;SDS011;13719;48.188;11.618;2024-02-26T08:51:07;1.90;;;1.40;;
25915;SDS011;13719;48.188;11.618;2024-02-26T08:53:36;4.53;;;1.63;;
25915;SDS011;13719;48.188;11.618;2024-02-26T08:56:09;2.45;;;1.58;;
25915;SDS011;13719;48.188;11.618;2024-02-26T08:58:45;4.50;;;1.52;;
25915;SDS011;13719;48.188;11.618;2024-02-26T09:01:15;2.22;;;1.60;;
25915;SDS011;13719;48.188;11.618;2024-02-26T09:03:44;2.30;;;1.80;;
25915;SDS011;13719;48.188;11.618;2024-02-26T09:06:14;2.15;;;1.70;;
25915;SDS011;13719;48.188;11.618;2024-02-26T09:08:43;3.08;;;1.52;;
25915;SDS011;13719;48.188;11.618;2024-02-26T09:11:11;1.63;;;1.38;;
25915;SDS011;13719;48.188;11.618;2024-02-26T09:13:40;1.98;;;1.58;;
25915;SDS011;13719;48.188;11.618;2024-02-26T09:16:11;4.78;;;1.90;;
25915;SDS011;13719;48.188;11.618;2024-02-26T09:18:40;2.78;;;1.60;;
25915;SDS011;13719;48.188;11.618;2024-02-26T09:21:08;2.85;;;1.63;;
25915;SDS011;13719;48.188;11.618;2024-02-26T09:23:37;1.90;;;1.40;;
25915;SDS011;13719;48.188;11.618;2024-02-26T09:26:05;2.58;;;1.55;;
25915;SDS011;13719;48.188;11.618;2024-02-26T09:28:33;2.05;;;1.70;;
25915;SDS011;13719;48.188;11.618;2024-02-26T09:31:04;3.45;;;1.45;;
25915;SDS011;13719;48.188;11.618;2024-02-26T09:33:34;3.80;;;1.40;;
25915;SDS011;13719;48.188;11.618;2024-02-26T09:36:03;2.58;;;1.55;;
25915;SDS011;13719;48.188;11.618;2024-02-26T09:38:32;3.15;;;1.77;;
25915;SDS011;13719;48.188;11.618;2024-02-26T09:41:21;2.83;;;1.73;;
25915;SDS011;13719;48.188;11.618;2024-02-26T09:43:49;5.63;;;1.92;;
25915;SDS011;13719;48.188;11.618;2024-02-26T09:46:19;3.15;;;1.73;;
25915;SDS011;13719;48.188;11.618;2024-02-26T09:48:49;2.83;;;1.73;;
25915;SDS011;13719;48.188;11.618;2024-02-26T09:51:17;3.88;;;1.50;;
25915;SDS011;13719;48.188;11.618;2024-02-26T09:53:47;2.38;;;1.50;;
25915;SDS011;13719;48.188;11.618;2024-02-26T09:56:16;4.18;;;1.77;;
25915;SDS011;13719;48.188;11.618;2024-02-26T09:58:45;2.78;;;1.63;;
25915;SDS011;13719;48.188;11.618;2024-02-26T10:01:18;1.85;;;1.50;;
25915;SDS011;13719;48.188;11.618;2024-02-26T10:03:47;2.13;;;1.73;;
25915;SDS011;13719;48.188;11.618;2024-02-26T10:06:17;2.08;;;1.77;;
25915;SDS011;13719;48.188;11.618;2024-02-26T10:08:46;6.28;;;1.70;;
25915;SDS011;13719;48.188;11.618;2024-02-26T10:11:15;4.55;;;2.05;;
25915;SDS011;13719;48.188;11.618;2024-02-26T10:13:44;4.60;;;1.85;;
25915;SDS011;13719;48.188;11.618;2024-02-26T10:16:12;1.90;;;1.70;;
25915;SDS011;13719;48.188;11.618;2024-02-26T10:18:47;2.50;;;1.48;;
25915;SDS011;13719;48.188;11.618;2024-02-26T10:21:26;3.00;;;1.67;;
25915;SDS011;13719;48.188;11.618;2024-02-26T10:23:55;3.42;;;1.80;;
25915;SDS011;13719;48.188;11.618;2024-02-26T10:26:23;2.00;;;1.60;;
25915;SDS011;13719;48.188;11.618;2024-02-26T10:28:52;3.03;;;1.52;;
25915;SDS011;13719;48.188;11.618;2024-02-26T10:31:21;1.95;;;1.70;;
25915;SDS011;13719;48.188;11.618;2024-02-26T10:33:49;1.60;;;1.15;;
25915;SDS011;13719;48.188;11.618;2024-02-26T10:36:18;2.03;;;1.40;;
25915;SDS011;13719;48.188;11.618;2024-02-26T10:38:48;2.05;;;1.20;;
25915;SDS011;13719;48.188;11.618;2024-02-26T10:41:19;1.80;;;1.10;;
25915;SDS011;13719;48.188;11.618;2024-02-26T10:43:48;1.55;;;1.05;;
25915;SDS011;13719;48.188;11.618;2024-02-26T10:46:18;1.42;;;1.00;;
25915;SDS011;13719;48.188;11.618;2024-02-26T10:48:49;1.92;;;1.00;;
25915;SDS011;13719;48.188;11.618;2024-02-26T10:51:18;2.65;;;1.02;;
25915;SDS011;13719;48.188;11.618;2024-02-26T10:53:50;1.17;;;1.00;;
25915;SDS011;13719;48.188;11.618;2024-02-26T10:56:22;0.70;;;0.70;;
25915;SDS011;13719;48.188;11.618;2024-02-26T10:58:53;1.83;;;1.10;;
25915;SDS011;13719;48.188;11.618;2024-02-26T11:01:23;1.02;;;0.80;;
25915;SDS011;13719;48.188;11.618;2024-02-26T11:03:52;2.00;;;1.17;;
25915;SDS011;13719;48.188;11.618;2024-02-26T11:06:21;0.90;;;0.80;;
25915;SDS011;13719;48.188;11.618;2024-02-26T11:08:51;1.55;;;1.20;;
25915;SDS011;13719;48.188;11.618;2024-02-26T11:11:20;0.82;;;0.82;;
25915;SDS011;13719;48.188;11.618;2024-02-26T11:13:49;0.93;;;0.85;;
25915;SDS011;13719;48.188;11.618;2024-02-26T11:16:20;1.10;;;0.85;;
25915;SDS011;13719;48.188;11.618;2024-02-26T11:18:49;1.23;;;1.02;;
25915;SDS011;13719;48.188;11.618;2024-02-26T11:21:17;1.00;;;0.90;;
25915;SDS011;13719;48.188;11.618;2024-02-26T11:23:55;1.77;;;1.48;;
25915;SDS011;13719;48.188;11.618;2024-02-26T11:26:24;1.10;;;0.88;;
25915;SDS011;13719;48.188;11.618;2024-02-26T11:28:54;1.63;;;1.00;;
25915;SDS011;13719;48.188;11.618;2024-02-26T11:31:24;2.00;;;1.10;;
25915;SDS011;13719;48.188;11.618;2024-02-26T11:33:53;4.25;;;1.13;;
25915;SDS011;13719;48.188;11.618;2024-02-26T11:36:23;1.33;;;1.00;;
25915;SDS011;13719;48.188;11.618;2024-02-26T11:38:52;1.42;;;0.90;;
25915;SDS011;13719;48.188;11.618;2024-02-26T11:41:22;3.67;;;0.93;;
25915;SDS011;13719;48.188;11.618;2024-02-26T11:43:51;0.90;;;0.80;;
25915;SDS011;13719;48.188;11.618;2024-02-26T11:46:26;1.23;;;0.90;;
25915;SDS011;13719;48.188;11.618;2024-02-26T11:48:56;1.08;;;0.90;;
25915;SDS011;13719;48.188;11.618;2024-02-26T11:51:25;1.75;;;1.00;;
25915;SDS011;13719;48.188;11.618;2024-02-26T11:53:54;0.98;;;0.80;;
25915;SDS011;13719;48.188;11.618;2024-02-26T11:56:26;1.63;;;1.00;;
25915;SDS011;13719;48.188;11.618;2024-02-26T11:58:58;1.90;;;0.90;;
25915;SDS011;13719;48.188;11.618;2024-02-26T12:01:43;1.48;;;1.13;;
25915;SDS011;13719;48.188;11.618;2024-02-26T12:04:18;2.08;;;1.10;;
25915;SDS011;13719;48.188;11.618;2024-02-26T12:06:48;1.40;;;0.90;;
25915;SDS011;13719;48.188;11.618;2024-02-26T12:09:30;1.33;;;0.77;;
25915;SDS011;13719;48.188;11.618;2024-02-26T12:12:00;1.38;;;0.98;;
25915;SDS011;13719;48.188;11.618;2024-02-26T12:14:29;3.33;;;0.98;;
25915;SDS011;13719;48.188;11.618;2024-02-26T12:16:58;1.05;;;0.95;;
25915;SDS011;13719;48.188;11.618;2024-02-26T12:19:26;0.90;;;0.80;;
25915;SDS011;13719;48.188;11.618;2024-02-26T12:21:55;1.88;;;1.20;;
25915;SDS011;13719;48.188;11.618;2024-02-26T12:24:24;4.20;;;1.00;;
25915;SDS011;13719;48.188;11.618;2024-02-26T12:26:52;2.47;;;1.13;;
25915;SDS011;13719;48.188;11.618;2024-02-26T12:29:22;2.30;;;1.00;;
25915;SDS011;13719;48.188;11.618;2024-02-26T12:31:50;1.33;;;1.00;;
25915;SDS011;13719;48.188;11.618;2024-02-26T12:34:19;1.00;;;0.90;;
25915;SDS011;13719;48.188;11.618;2024-02-26T12:36:47;1.45;;;1.30;;
25915;SDS011;13719;48.188;11.618;2024-02-26T12:39:16;1.08;;;0.98;;
25915;SDS011;13719;48.188;11.618;2024-02-26T12:41:46;1.42;;;1.10;;
25915;SDS011;13719;48.188;11.618;2024-02-26T12:44:16;1.70;;;1.17;;
25915;SDS011;13719;48.188;11.618;2024-02-26T12:46:45;1.08;;;0.98;;
25915;SDS011;13719;48.188;11.618;2024-02-26T12:49:14;1.40;;;1.27;;
25915;SDS011;13719;48.188;11.618;2024-02-26T12:51:44;1.17;;;1.08;;
25915;SDS011;13719;48.188;11.618;2024-02-26T12:54:13;1.42;;;1.27;;
25915;SDS011;13719;48.188;11.618;2024-02-26T12:56:41;1.88;;;1.42;;
25915;SDS011;13719;48.188;11.618;2024-02-26T12:59:10;2.10;;;1.40;;
25915;SDS011;13719;48.188;11.618;2024-02-26T13:01:38;1.38;;;1.27;;
25915;SDS011;13719;48.188;11.618;2024-02-26T13:04:08;1.50;;;1.35;;
25915;SDS011;13719;48.188;11.618;2024-02-26T13:06:37;3.13;;;1.65;;
25915;SDS011;13719;48.188;11.618;2024-02-26T13:09:05;2.78;;;1.65;;
25915;SDS011;13719;48.188;11.618;2024-02-26T13:11:35;1.45;;;1.25;;
25915;SDS011;13719;48.188;11.618;2024-02-26T13:14:04;3.25;;;1.20;;
25915;SDS011;13719;48.188;11.618;2024-02-26T13:16:34;1.30;;;1.20;;
25915;SDS011;13719;48.188;11.618;2024-02-26T13:19:09;1.33;;;1.02;;
25915;SDS011;13719;48.188;11.618;2024-02-26T13:21:37;1.25;;;1.10;;
25915;SDS011;13719;48.188;11.618;2024-02-26T13:24:06;1.10;;;0.93;;
25915;SDS011;13719;48.188;11.618;2024-02-26T13:26:34;1.00;;;0.80;;
25915;SDS011;13719;48.188;11.618;2024-02-26T13:29:03;1.20;;;0.80;;
25915;SDS011;13719;48.188;11.618;2024-02-26T13:31:31;0.88;;;0.70;;
25915;SDS011;13719;48.188;11.618;2024-02-26T13:34:12;1.20;;;0.60;;
25915;SDS011;13719;48.188;11.618;2024-02-26T13:36:51;1.05;;;0.60;;
25915;SDS011;13719;48.188;11.618;2024-02-26T13:39:22;0.85;;;0.63;;
25915;SDS011;13719;48.188;11.618;2024-02-26T13:41:51;1.13;;;0.82;;
25915;SDS011;13719;48.188;11.618;2024-02-26T13:44:20;0.60;;;0.60;;
25915;SDS011;13719;48.188;11.618;2024-02-26T13:46:49;1.05;;;0.70;;
25915;SDS011;13719;48.188;11.618;2024-02-26T13:49:19;0.90;;;0.70;;
25915;SDS011;13719;48.188;11.618;2024-02-26T13:51:47;1.15;;;0.90;;
25915;SDS011;13719;48.188;11.618;2024-02-26T13:54:16;1.20;;;0.75;;
25915;SDS011;13719;48.188;11.618;2024-02-26T13:56:44;1.17;;;0.90;;
25915;SDS011;13719;48.188;11.618;2024-02-26T13:59:14;3.20;;;0.98;;
25915;SDS011;13719;48.188;11.618;2024-02-26T14:01:42;1.10;;;0.80;;
25915;SDS011;13719;48.188;11.618;2024-02-26T14:04:11;2.65;;;0.80;;
25915;SDS011;13719;48.188;11.618;2024-02-26T14:06:41;1.15;;;0.90;;
25915;SDS011;13719;48.188;11.618;2024-02-26T14:09:10;1.02;;;0.80;;
25915;SDS011;13719;48.188;11.618;2024-02-26T14:11:44;1.15;;;0.90;;
25915;SDS011;13719;48.188;11.618;2024-02-26T14:14:13;1.83;;;1.20;;
25915;SDS011;13719;48.188;11.618;2024-02-26T14:16:41;2.05;;;1.10;;
25915;SDS011;13719;48.188;11.618;2024-02-26T14:19:10;1.77;;;0.90;;
25915;SDS011;13719;48.188;11.618;2024-02-26T14:21:43;0.85;;;0.85;;
25915;SDS011;13719;48.188;11.618;2024-02-26T14:24:11;1.73;;;0.95;;
25915;SDS011;13719;48.188;11.618;2024-02-26T14:26:40;0.93;;;0.82;;
25915;SDS011;13719;48.188;11.618;2024-02-26T14:29:08;0.82;;;0.80;;
25915;SDS011;13719;48.188;11.618;2024-02-26T14:31:36;2.38;;;0.90;;
25915;SDS011;13719;48.188;11.618;2024-02-26T14:34:05;1.05;;;0.95;;
25915;SDS011;13719;48.188;11.618;2024-02-26T14:36:34;1.60;;;1.08;;
25915;SDS011;13719;48.188;11.618;2024-02-26T14:39:04;1.05;;;0.82;;
25915;SDS011;13719;48.188;11.618;2024-02-26T14:41:33;1.58;;;1.00;;
25915;SDS011;13719;48.188;11.618;2024-02-26T14:44:01;2.85;;;0.90;;
25915;SDS011;13719;48.188;11.618;2024-02-26T14:46:30;1.70;;;1.00;;